sensor_id;sensor_type;location;lat;lon;timestamp;P1;durP1;ratioP1;P2;durP2;ratioP2
73296;SDS011;61524;50.938;11.396;2022-11-03T02:20:09;6.18;;;2.88;;
73296;SDS011;61524;50.938;11.396;2022-11-03T02:28:19;5.82;;;3.20;;
73296;SDS011;61524;50.938;11.396;2022-11-03T02:33:46;6.80;;;3.20;;
73296;SDS011;61524;50.938;11.396;2022-11-03T02:39:02;8.35;;;2.92;;
73296;SDS011;61524;50.938;11.396;2022-11-03T02:41:40;9.63;;;3.40;;
73296;SDS011;61524;50.938;11.396;2022-11-03T02:44:10;7.78;;;2.75;;
73296;SDS011;61524;50.938;11.396;2022-11-03T02:46:40;6.72;;;3.00;;
73296;SDS011;61524;50.938;11.396;2022-11-03T02:49:08;10.15;;;3.60;;
73296;SDS011;61524;50.938;11.396;2022-11-03T02:51:33;4.55;;;2.45;;
73296;SDS011;61524;50.938;11.396;2022-11-03T02:57:29;8.52;;;2.75;;
73296;SDS011;61524;50.938;11.396;2022-11-03T02:59:44;5.57;;;2.80;;
73296;SDS011;61524;50.938;11.396;2022-11-03T03:02:14;8.38;;;3.33;;
73296;SDS011;61524;50.938;11.396;2022-11-03T03:04:48;5.63;;;2.90;;
73296;SDS011;61524;50.938;11.396;2022-11-03T03:07:36;4.88;;;2.33;;
73296;SDS011;61524;50.938;11.396;2022-11-03T03:10:07;6.70;;;2.67;;
73296;SDS011;61524;50.938;11.396;2022-11-03T03:15:06;6.10;;;2.50;;
73296;SDS011;61524;50.938;11.396;2022-11-03T03:17:36;6.53;;;3.15;;
73296;SDS011;61524;50.938;11.396;2022-11-03T03:20:40;6.72;;;2.97;;
73296;SDS011;61524;50.938;11.396;2022-11-03T03:23:17;6.75;;;2.40;;
73296;SDS011;61524;50.938;11.396;2022-11-03T03:25:48;7.10;;;2.63;;
73296;SDS011;61524;50.938;11.396;2022-11-03T03:28:25;10.65;;;3.45;;
73296;SDS011;61524;50.938;11.396;2022-11-03T03:30:58;7.82;;;3.17;;
73296;SDS011;61524;50.938;11.396;2022-11-03T03:33:27;8.70;;;3.13;;
73296;SDS011;61524;50.938;11.396;2022-11-03T03:38:26;5.95;;;2.80;;
73296;SDS011;61524;50.938;11.396;2022-11-03T03:40:54;8.85;;;3.13;;
73296;SDS011;61524;50.938;11.396;2022-11-03T03:43:23;7.65;;;2.95;;
73296;SDS011;61524;50.938;11.396;2022-11-03T03:45:53;5.90;;;2.58;;
73296;SDS011;61524;50.938;11.396;2022-11-03T03:48:22;10.05;;;2.92;;
73296;SDS011;61524;50.938;11.396;2022-11-03T03:50:47;5.30;;;2.70;;
73296;SDS011;61524;50.938;11.396;2022-11-03T03:53:15;8.13;;;3.15;;
73296;SDS011;61524;50.938;11.396;2022-11-03T03:55:44;6.00;;;2.63;;
73296;SDS011;61524;50.938;11.396;2022-11-03T03:58:12;7.30;;;2.28;;
73296;SDS011;61524;50.938;11.396;2022-11-03T04:00:39;9.90;;;3.10;;
73296;SDS011;61524;50.938;11.396;2022-11-03T04:03:07;7.28;;;2.80;;
73296;SDS011;61524;50.938;11.396;2022-11-03T04:05:38;9.30;;;2.80;;
73296;SDS011;61524;50.938;11.396;2022-11-03T04:08:04;8.45;;;2.53;;
73296;SDS011;61524;50.938;11.396;2022-11-03T04:10:29;5.38;;;2.75;;
73296;SDS011;61524;50.938;11.396;2022-11-03T04:12:55;7.55;;;3.15;;
73296;SDS011;61524;50.938;11.396;2022-11-03T04:15:38;5.47;;;2.63;;
73296;SDS011;61524;50.938;11.396;2022-11-03T04:18:13;11.20;;;3.13;;
73296;SDS011;61524;50.938;11.396;2022-11-03T04:20:57;7.15;;;3.00;;
73296;SDS011;61524;50.938;11.396;2022-11-03T04:23:41;7.30;;;2.58;;
73296;SDS011;61524;50.938;11.396;2022-11-03T04:26:11;6.90;;;2.95;;
73296;SDS011;61524;50.938;11.396;2022-11-03T04:28:39;6.47;;;2.70;;
73296;SDS011;61524;50.938;11.396;2022-11-03T04:31:05;10.10;;;3.58;;
73296;SDS011;61524;50.938;11.396;2022-11-03T04:33:37;9.18;;;3.30;;
73296;SDS011;61524;50.938;11.396;2022-11-03T04:36:08;8.65;;;2.92;;
73296;SDS011;61524;50.938;11.396;2022-11-03T04:38:37;6.93;;;3.40;;
73296;SDS011;61524;50.938;11.396;2022-11-03T04:41:12;5.75;;;3.08;;
73296;SDS011;61524;50.938;11.396;2022-11-03T04:43:40;7.80;;;3.03;;
73296;SDS011;61524;50.938;11.396;2022-11-03T04:46:08;8.65;;;3.92;;
73296;SDS011;61524;50.938;11.396;2022-11-03T04:48:35;6.75;;;3.08;;
73296;SDS011;61524;50.938;11.396;2022-11-03T04:51:04;9.70;;;3.38;;
73296;SDS011;61524;50.938;11.396;2022-11-03T04:53:37;4.28;;;2.78;;
73296;SDS011;61524;50.938;11.396;2022-11-03T04:56:11;7.95;;;3.00;;
73296;SDS011;61524;50.938;11.396;2022-11-03T04:58:41;6.95;;;2.97;;
73296;SDS011;61524;50.938;11.396;2022-11-03T05:01:11;6.80;;;2.90;;
73296;SDS011;61524;50.938;11.396;2022-11-03T05:03:37;8.93;;;3.28;;
73296;SDS011;61524;50.938;11.396;2022-11-03T05:06:11;6.65;;;3.17;;
73296;SDS011;61524;50.938;11.396;2022-11-03T05:08:41;7.68;;;3.20;;
73296;SDS011;61524;50.938;11.396;2022-11-03T05:13:49;7.80;;;3.20;;
73296;SDS011;61524;50.938;11.396;2022-11-03T05:16:16;6.13;;;3.25;;
73296;SDS011;61524;50.938;11.396;2022-11-03T05:18:42;6.65;;;2.92;;
73296;SDS011;61524;50.938;11.396;2022-11-03T05:21:14;6.15;;;2.65;;
73296;SDS011;61524;50.938;11.396;2022-11-03T05:23:49;7.60;;;3.45;;
73296;SDS011;61524;50.938;11.396;2022-11-03T05:26:19;9.35;;;3.53;;
73296;SDS011;61524;50.938;11.396;2022-11-03T05:28:59;9.52;;;3.15;;
73296;SDS011;61524;50.938;11.396;2022-11-03T05:33:58;7.38;;;3.35;;
73296;SDS011;61524;50.938;11.396;2022-11-03T05:36:26;7.55;;;3.58;;
73296;SDS011;61524;50.938;11.396;2022-11-03T05:39:40;8.95;;;3.63;;
73296;SDS011;61524;50.938;11.396;2022-11-03T05:41:51;9.50;;;3.38;;
73296;SDS011;61524;50.938;11.396;2022-11-03T05:47:04;6.20;;;3.40;;
73296;SDS011;61524;50.938;11.396;2022-11-03T05:49:37;8.85;;;3.25;;
73296;SDS011;61524;50.938;11.396;2022-11-03T05:52:03;10.45;;;3.63;;
73296;SDS011;61524;50.938;11.396;2022-11-03T05:54:37;6.03;;;3.17;;
73296;SDS011;61524;50.938;11.396;2022-11-03T05:57:06;8.43;;;4.65;;
73296;SDS011;61524;50.938;11.396;2022-11-03T05:59:35;11.18;;;4.53;;
73296;SDS011;61524;50.938;11.396;2022-11-03T06:02:01;15.13;;;5.70;;
73296;SDS011;61524;50.938;11.396;2022-11-03T06:04:33;8.65;;;4.97;;
73296;SDS011;61524;50.938;11.396;2022-11-03T06:07:11;13.70;;;4.95;;
73296;SDS011;61524;50.938;11.396;2022-11-03T06:09:39;13.27;;;4.88;;
73296;SDS011;61524;50.938;11.396;2022-11-03T06:12:04;12.32;;;7.85;;
73296;SDS011;61524;50.938;11.396;2022-11-03T06:14:31;14.73;;;7.53;;
73296;SDS011;61524;50.938;11.396;2022-11-03T06:19:43;11.52;;;7.18;;
73296;SDS011;61524;50.938;11.396;2022-11-03T06:22:23;12.27;;;6.97;;
73296;SDS011;61524;50.938;11.396;2022-11-03T06:24:54;11.02;;;5.93;;
73296;SDS011;61524;50.938;11.396;2022-11-03T06:27:23;11.65;;;6.47;;
73296;SDS011;61524;50.938;11.396;2022-11-03T06:29:52;11.05;;;5.85;;
73296;SDS011;61524;50.938;11.396;2022-11-03T06:32:22;14.30;;;7.50;;
73296;SDS011;61524;50.938;11.396;2022-11-03T06:34:49;15.98;;;7.30;;
73296;SDS011;61524;50.938;11.396;2022-11-03T06:37:25;14.40;;;6.10;;
73296;SDS011;61524;50.938;11.396;2022-11-03T06:42:39;15.05;;;6.75;;
73296;SDS011;61524;50.938;11.396;2022-11-03T06:45:12;12.55;;;5.65;;
73296;SDS011;61524;50.938;11.396;2022-11-03T06:47:42;13.95;;;5.93;;
73296;SDS011;61524;50.938;11.396;2022-11-03T06:50:25;13.18;;;5.78;;
73296;SDS011;61524;50.938;11.396;2022-11-03T06:55:32;20.60;;;11.95;;
73296;SDS011;61524;50.938;11.396;2022-11-03T06:58:22;15.48;;;9.20;;
73296;SDS011;61524;50.938;11.396;2022-11-03T07:00:58;25.88;;;11.25;;
73296;SDS011;61524;50.938;11.396;2022-11-03T07:03:30;18.67;;;8.98;;
73296;SDS011;61524;50.938;11.396;2022-11-03T07:08:53;22.15;;;10.00;;
73296;SDS011;61524;50.938;11.396;2022-11-03T07:13:51;18.00;;;7.85;;
73296;SDS011;61524;50.938;11.396;2022-11-03T07:16:33;15.32;;;6.72;;
73296;SDS011;61524;50.938;11.396;2022-11-03T07:19:05;18.55;;;8.55;;
73296;SDS011;61524;50.938;11.396;2022-11-03T07:21:43;12.88;;;6.00;;
73296;SDS011;61524;50.938;11.396;2022-11-03T07:24:21;11.50;;;6.03;;
73296;SDS011;61524;50.938;11.396;2022-11-03T07:29:50;10.63;;;4.57;;
73296;SDS011;61524;50.938;11.396;2022-11-03T07:32:19;13.73;;;4.35;;
73296;SDS011;61524;50.938;11.396;2022-11-03T07:34:47;9.73;;;4.45;;
73296;SDS011;61524;50.938;11.396;2022-11-03T07:37:17;10.73;;;4.82;;
73296;SDS011;61524;50.938;11.396;2022-11-03T07:39:49;8.60;;;4.85;;
73296;SDS011;61524;50.938;11.396;2022-11-03T07:42:19;8.57;;;3.50;;
73296;SDS011;61524;50.938;11.396;2022-11-03T07:44:46;14.75;;;3.97;;
73296;SDS011;61524;50.938;11.396;2022-11-03T07:49:42;8.40;;;3.03;;
73296;SDS011;61524;50.938;11.396;2022-11-03T07:52:09;8.80;;;2.85;;
73296;SDS011;61524;50.938;11.396;2022-11-03T07:54:37;10.55;;;3.72;;
73296;SDS011;61524;50.938;11.396;2022-11-03T07:57:18;9.27;;;3.17;;
73296;SDS011;61524;50.938;11.396;2022-11-03T07:59:45;10.85;;;3.47;;
73296;SDS011;61524;50.938;11.396;2022-11-03T08:05:00;10.25;;;3.30;;
73296;SDS011;61524;50.938;11.396;2022-11-03T08:07:26;6.63;;;2.78;;
73296;SDS011;61524;50.938;11.396;2022-11-03T08:09:52;7.25;;;2.80;;
73296;SDS011;61524;50.938;11.396;2022-11-03T08:12:18;6.22;;;3.10;;
73296;SDS011;61524;50.938;11.396;2022-11-03T08:14:44;8.32;;;2.90;;
73296;SDS011;61524;50.938;11.396;2022-11-03T08:17:09;7.10;;;2.65;;
73296;SDS011;61524;50.938;11.396;2022-11-03T08:19:35;5.53;;;2.83;;
73296;SDS011;61524;50.938;11.396;2022-11-03T08:22:00;7.25;;;3.10;;
73296;SDS011;61524;50.938;11.396;2022-11-03T08:24:26;7.70;;;3.30;;
73296;SDS011;61524;50.938;11.396;2022-11-03T08:26:51;8.07;;;3.05;;
73296;SDS011;61524;50.938;11.396;2022-11-03T08:29:16;7.95;;;2.63;;
73296;SDS011;61524;50.938;11.396;2022-11-03T08:31:42;6.15;;;2.67;;
73296;SDS011;61524;50.938;11.396;2022-11-03T08:34:08;9.57;;;3.45;;
73296;SDS011;61524;50.938;11.396;2022-11-03T08:36:34;6.35;;;2.40;;
73296;SDS011;61524;50.938;11.396;2022-11-03T08:38:59;9.30;;;3.78;;
73296;SDS011;61524;50.938;11.396;2022-11-03T08:41:25;6.05;;;2.58;;
73296;SDS011;61524;50.938;11.396;2022-11-03T08:43:50;6.70;;;2.28;;
73296;SDS011;61524;50.938;11.396;2022-11-03T08:46:16;7.38;;;2.70;;
73296;SDS011;61524;50.938;11.396;2022-11-03T08:48:41;7.07;;;2.67;;
73296;SDS011;61524;50.938;11.396;2022-11-03T08:51:06;7.15;;;2.88;;
73296;SDS011;61524;50.938;11.396;2022-11-03T08:53:34;4.35;;;2.45;;
73296;SDS011;61524;50.938;11.396;2022-11-03T08:55:59;7.43;;;2.85;;
73296;SDS011;61524;50.938;11.396;2022-11-03T08:58:25;6.82;;;2.53;;
73296;SDS011;61524;50.938;11.396;2022-11-03T09:00:50;5.07;;;2.53;;
73296;SDS011;61524;50.938;11.396;2022-11-03T09:03:16;7.07;;;2.72;;
73296;SDS011;61524;50.938;11.396;2022-11-03T09:05:42;7.07;;;3.03;;
73296;SDS011;61524;50.938;11.396;2022-11-03T09:08:07;8.88;;;2.42;;
73296;SDS011;61524;50.938;11.396;2022-11-03T09:10:33;5.40;;;2.50;;
73296;SDS011;61524;50.938;11.396;2022-11-03T09:12:59;9.30;;;2.47;;
73296;SDS011;61524;50.938;11.396;2022-11-03T09:15:24;5.07;;;2.30;;
73296;SDS011;61524;50.938;11.396;2022-11-03T09:17:49;8.45;;;3.08;;
73296;SDS011;61524;50.938;11.396;2022-11-03T09:20:15;5.63;;;2.53;;
73296;SDS011;61524;50.938;11.396;2022-11-03T09:22:41;5.28;;;2.05;;
73296;SDS011;61524;50.938;11.396;2022-11-03T09:25:06;5.55;;;2.15;;
73296;SDS011;61524;50.938;11.396;2022-11-03T09:27:32;3.80;;;1.85;;
73296;SDS011;61524;50.938;11.396;2022-11-03T09:29:58;6.80;;;2.38;;
73296;SDS011;61524;50.938;11.396;2022-11-03T09:32:23;4.47;;;1.88;;
73296;SDS011;61524;50.938;11.396;2022-11-03T09:34:49;5.45;;;1.92;;
73296;SDS011;61524;50.938;11.396;2022-11-03T09:37:14;7.47;;;2.45;;
73296;SDS011;61524;50.938;11.396;2022-11-03T09:39:40;6.35;;;2.13;;
73296;SDS011;61524;50.938;11.396;2022-11-03T09:42:06;2.55;;;1.27;;
73296;SDS011;61524;50.938;11.396;2022-11-03T09:44:33;5.43;;;1.65;;
73296;SDS011;61524;50.938;11.396;2022-11-03T09:47:00;5.63;;;2.13;;
73296;SDS011;61524;50.938;11.396;2022-11-03T09:49:26;7.57;;;2.08;;
73296;SDS011;61524;50.938;11.396;2022-11-03T09:51:54;5.88;;;1.92;;
73296;SDS011;61524;50.938;11.396;2022-11-03T09:54:21;6.22;;;2.22;;
73296;SDS011;61524;50.938;11.396;2022-11-03T09:56:46;5.63;;;2.08;;
73296;SDS011;61524;50.938;11.396;2022-11-03T09:59:19;6.13;;;1.63;;
73296;SDS011;61524;50.938;11.396;2022-11-03T10:01:46;5.88;;;1.98;;
73296;SDS011;61524;50.938;11.396;2022-11-03T10:04:15;3.63;;;1.50;;
73296;SDS011;61524;50.938;11.396;2022-11-03T10:06:43;5.78;;;1.80;;
73296;SDS011;61524;50.938;11.396;2022-11-03T10:09:10;7.72;;;2.22;;
73296;SDS011;61524;50.938;11.396;2022-11-03T10:11:39;6.70;;;1.73;;
73296;SDS011;61524;50.938;11.396;2022-11-03T10:14:06;4.72;;;1.73;;
73296;SDS011;61524;50.938;11.396;2022-11-03T10:16:37;5.70;;;2.10;;
73296;SDS011;61524;50.938;11.396;2022-11-03T10:19:04;5.60;;;2.13;;
73296;SDS011;61524;50.938;11.396;2022-11-03T10:21:32;5.13;;;2.17;;
73296;SDS011;61524;50.938;11.396;2022-11-03T10:23:58;6.20;;;1.42;;
73296;SDS011;61524;50.938;11.396;2022-11-03T10:26:24;4.85;;;1.80;;
73296;SDS011;61524;50.938;11.396;2022-11-03T10:29:00;4.15;;;1.98;;
73296;SDS011;61524;50.938;11.396;2022-11-03T10:31:38;6.45;;;1.80;;
73296;SDS011;61524;50.938;11.396;2022-11-03T10:34:05;6.68;;;1.52;;
73296;SDS011;61524;50.938;11.396;2022-11-03T10:37:24;2.63;;;1.40;;
73296;SDS011;61524;50.938;11.396;2022-11-03T10:39:51;4.65;;;1.70;;
73296;SDS011;61524;50.938;11.396;2022-11-03T10:42:22;4.07;;;1.60;;
73296;SDS011;61524;50.938;11.396;2022-11-03T10:44:54;4.85;;;1.60;;
73296;SDS011;61524;50.938;11.396;2022-11-03T10:47:43;5.85;;;1.70;;
73296;SDS011;61524;50.938;11.396;2022-11-03T10:50:19;4.43;;;1.55;;
73296;SDS011;61524;50.938;11.396;2022-11-03T10:52:47;4.05;;;1.45;;
73296;SDS011;61524;50.938;11.396;2022-11-03T10:55:14;5.28;;;1.63;;
73296;SDS011;61524;50.938;11.396;2022-11-03T10:57:39;3.88;;;2.05;;
73296;SDS011;61524;50.938;11.396;2022-11-03T11:00:05;5.78;;;1.60;;
73296;SDS011;61524;50.938;11.396;2022-11-03T11:02:36;5.72;;;1.90;;
73296;SDS011;61524;50.938;11.396;2022-11-03T11:05:08;4.47;;;2.00;;
73296;SDS011;61524;50.938;11.396;2022-11-03T11:07:39;6.25;;;1.58;;
73296;SDS011;61524;50.938;11.396;2022-11-03T11:10:17;4.22;;;1.38;;
73296;SDS011;61524;50.938;11.396;2022-11-03T11:20:54;4.93;;;1.63;;
73296;SDS011;61524;50.938;11.396;2022-11-03T11:28:36;3.38;;;1.23;;
73296;SDS011;61524;50.938;11.396;2022-11-03T11:33:48;4.55;;;1.33;;
73296;SDS011;61524;50.938;11.396;2022-11-03T11:36:23;6.10;;;1.77;;
73296;SDS011;61524;50.938;11.396;2022-11-03T11:41:20;6.22;;;1.85;;
73296;SDS011;61524;50.938;11.396;2022-11-03T11:43:46;4.45;;;1.60;;
73296;SDS011;61524;50.938;11.396;2022-11-03T11:49:14;6.35;;;1.88;;
73296;SDS011;61524;50.938;11.396;2022-11-03T11:51:41;5.95;;;1.58;;
73296;SDS011;61524;50.938;11.396;2022-11-03T11:54:07;3.65;;;1.50;;
73296;SDS011;61524;50.938;11.396;2022-11-03T11:56:41;3.00;;;1.50;;
73296;SDS011;61524;50.938;11.396;2022-11-03T11:59:16;8.90;;;2.58;;
73296;SDS011;61524;50.938;11.396;2022-11-03T12:01:47;5.22;;;1.67;;
73296;SDS011;61524;50.938;11.396;2022-11-03T12:04:19;2.97;;;1.30;;
73296;SDS011;61524;50.938;11.396;2022-11-03T12:06:48;3.50;;;1.42;;
73296;SDS011;61524;50.938;11.396;2022-11-03T12:09:15;5.80;;;1.38;;
73296;SDS011;61524;50.938;11.396;2022-11-03T12:11:48;3.75;;;1.15;;
73296;SDS011;61524;50.938;11.396;2022-11-03T12:19:42;4.97;;;1.30;;
73296;SDS011;61524;50.938;11.396;2022-11-03T12:22:11;4.38;;;1.23;;
73296;SDS011;61524;50.938;11.396;2022-11-03T12:25:02;6.35;;;1.30;;
73296;SDS011;61524;50.938;11.396;2022-11-03T12:30:02;5.07;;;1.42;;
73296;SDS011;61524;50.938;11.396;2022-11-03T12:32:30;4.25;;;1.40;;
73296;SDS011;61524;50.938;11.396;2022-11-03T12:34:56;6.65;;;1.50;;
73296;SDS011;61524;50.938;11.396;2022-11-03T12:37:22;7.22;;;1.75;;
73296;SDS011;61524;50.938;11.396;2022-11-03T12:39:48;5.07;;;1.30;;
73296;SDS011;61524;50.938;11.396;2022-11-03T12:42:13;4.32;;;1.60;;
73296;SDS011;61524;50.938;11.396;2022-11-03T12:44:38;4.80;;;1.90;;
73296;SDS011;61524;50.938;11.396;2022-11-03T12:47:04;2.35;;;1.10;;
73296;SDS011;61524;50.938;11.396;2022-11-03T12:49:29;4.63;;;1.30;;
73296;SDS011;61524;50.938;11.396;2022-11-03T12:51:55;4.35;;;2.40;;
73296;SDS011;61524;50.938;11.396;2022-11-03T12:54:24;5.80;;;1.65;;
73296;SDS011;61524;50.938;11.396;2022-11-03T12:56:49;6.32;;;1.35;;
73296;SDS011;61524;50.938;11.396;2022-11-03T12:59:17;5.07;;;1.52;;
73296;SDS011;61524;50.938;11.396;2022-11-03T13:01:42;4.03;;;1.10;;
73296;SDS011;61524;50.938;11.396;2022-11-03T13:04:08;2.97;;;1.50;;
73296;SDS011;61524;50.938;11.396;2022-11-03T13:06:33;4.63;;;1.52;;
73296;SDS011;61524;50.938;11.396;2022-11-03T13:08:58;2.85;;;1.55;;
73296;SDS011;61524;50.938;11.396;2022-11-03T13:11:24;3.72;;;1.58;;
73296;SDS011;61524;50.938;11.396;2022-11-03T13:14:08;5.18;;;1.55;;
73296;SDS011;61524;50.938;11.396;2022-11-03T13:16:33;4.25;;;1.60;;
73296;SDS011;61524;50.938;11.396;2022-11-03T13:18:59;3.50;;;1.17;;
73296;SDS011;61524;50.938;11.396;2022-11-03T13:21:25;3.88;;;1.35;;
73296;SDS011;61524;50.938;11.396;2022-11-03T13:23:51;3.28;;;1.25;;
73296;SDS011;61524;50.938;11.396;2022-11-03T13:26:17;3.60;;;1.30;;
73296;SDS011;61524;50.938;11.396;2022-11-03T13:28:43;5.80;;;1.38;;
73296;SDS011;61524;50.938;11.396;2022-11-03T13:31:09;4.05;;;1.35;;
73296;SDS011;61524;50.938;11.396;2022-11-03T13:33:34;2.83;;;1.25;;
73296;SDS011;61524;50.938;11.396;2022-11-03T13:36:00;4.82;;;1.30;;
73296;SDS011;61524;50.938;11.396;2022-11-03T13:38:25;6.05;;;1.60;;
73296;SDS011;61524;50.938;11.396;2022-11-03T13:40:51;7.32;;;1.60;;
73296;SDS011;61524;50.938;11.396;2022-11-03T13:43:16;6.80;;;1.60;;
73296;SDS011;61524;50.938;11.396;2022-11-03T13:45:41;4.53;;;1.38;;
73296;SDS011;61524;50.938;11.396;2022-11-03T13:48:07;4.78;;;1.50;;
73296;SDS011;61524;50.938;11.396;2022-11-03T13:50:32;4.68;;;1.77;;
73296;SDS011;61524;50.938;11.396;2022-11-03T13:52:58;4.78;;;1.35;;
73296;SDS011;61524;50.938;11.396;2022-11-03T13:55:23;3.00;;;1.42;;
73296;SDS011;61524;50.938;11.396;2022-11-03T13:57:48;3.78;;;1.35;;
73296;SDS011;61524;50.938;11.396;2022-11-03T14:00:14;5.18;;;1.73;;
73296;SDS011;61524;50.938;11.396;2022-11-03T14:02:41;3.92;;;1.50;;
73296;SDS011;61524;50.938;11.396;2022-11-03T14:05:07;3.72;;;1.70;;
73296;SDS011;61524;50.938;11.396;2022-11-03T14:07:33;2.90;;;1.00;;
73296;SDS011;61524;50.938;11.396;2022-11-03T14:09:59;3.58;;;1.20;;
73296;SDS011;61524;50.938;11.396;2022-11-03T14:12:24;9.70;;;2.30;;
73296;SDS011;61524;50.938;11.396;2022-11-03T14:15:03;4.40;;;1.45;;
73296;SDS011;61524;50.938;11.396;2022-11-03T14:17:33;4.78;;;1.70;;
73296;SDS011;61524;50.938;11.396;2022-11-03T14:22:25;6.73;;;1.80;;
73296;SDS011;61524;50.938;11.396;2022-11-03T14:24:50;3.33;;;1.38;;
73296;SDS011;61524;50.938;11.396;2022-11-03T14:27:16;4.88;;;1.50;;
73296;SDS011;61524;50.938;11.396;2022-11-03T14:29:43;4.05;;;1.60;;
73296;SDS011;61524;50.938;11.396;2022-11-03T14:32:09;6.22;;;1.77;;
73296;SDS011;61524;50.938;11.396;2022-11-03T14:34:35;3.72;;;1.60;;
73296;SDS011;61524;50.938;11.396;2022-11-03T14:37:00;5.40;;;1.65;;
73296;SDS011;61524;50.938;11.396;2022-11-03T14:39:26;5.82;;;1.63;;
73296;SDS011;61524;50.938;11.396;2022-11-03T14:41:52;4.47;;;1.92;;
73296;SDS011;61524;50.938;11.396;2022-11-03T14:44:36;6.45;;;1.50;;
73296;SDS011;61524;50.938;11.396;2022-11-03T14:47:03;5.38;;;1.67;;
73296;SDS011;61524;50.938;11.396;2022-11-03T14:49:31;6.28;;;1.63;;
73296;SDS011;61524;50.938;11.396;2022-11-03T14:51:58;5.97;;;2.15;;
73296;SDS011;61524;50.938;11.396;2022-11-03T14:54:25;4.22;;;1.70;;
73296;SDS011;61524;50.938;11.396;2022-11-03T14:56:51;6.28;;;1.67;;
73296;SDS011;61524;50.938;11.396;2022-11-03T14:59:17;8.90;;;2.13;;
73296;SDS011;61524;50.938;11.396;2022-11-03T15:01:43;4.68;;;1.60;;
73296;SDS011;61524;50.938;11.396;2022-11-03T15:04:10;4.03;;;1.90;;
73296;SDS011;61524;50.938;11.396;2022-11-03T15:09:02;5.82;;;1.75;;
73296;SDS011;61524;50.938;11.396;2022-11-03T15:11:28;7.18;;;1.95;;
73296;SDS011;61524;50.938;11.396;2022-11-03T15:13:54;7.53;;;2.10;;
73296;SDS011;61524;50.938;11.396;2022-11-03T15:16:19;6.80;;;2.40;;
73296;SDS011;61524;50.938;11.396;2022-11-03T15:18:45;4.22;;;1.83;;
73296;SDS011;61524;50.938;11.396;2022-11-03T15:21:11;6.30;;;2.05;;
73296;SDS011;61524;50.938;11.396;2022-11-03T15:23:37;4.90;;;1.80;;
73296;SDS011;61524;50.938;11.396;2022-11-03T15:26:02;5.85;;;1.75;;
73296;SDS011;61524;50.938;11.396;2022-11-03T15:28:27;4.15;;;1.85;;
73296;SDS011;61524;50.938;11.396;2022-11-03T15:30:53;4.50;;;1.92;;
73296;SDS011;61524;50.938;11.396;2022-11-03T15:33:18;5.15;;;1.92;;
73296;SDS011;61524;50.938;11.396;2022-11-03T15:35:44;5.78;;;2.15;;
73296;SDS011;61524;50.938;11.396;2022-11-03T15:38:10;4.97;;;2.10;;
73296;SDS011;61524;50.938;11.396;2022-11-03T15:40:37;4.63;;;1.70;;
73296;SDS011;61524;50.938;11.396;2022-11-03T15:43:02;4.55;;;1.90;;
73296;SDS011;61524;50.938;11.396;2022-11-03T15:45:29;6.32;;;2.00;;
73296;SDS011;61524;50.938;11.396;2022-11-03T15:47:56;7.65;;;2.38;;
73296;SDS011;61524;50.938;11.396;2022-11-03T15:50:21;4.53;;;1.88;;
73296;SDS011;61524;50.938;11.396;2022-11-03T15:52:47;4.43;;;2.10;;
73296;SDS011;61524;50.938;11.396;2022-11-03T15:55:12;7.88;;;2.40;;
73296;SDS011;61524;50.938;11.396;2022-11-03T15:57:38;4.45;;;1.83;;
73296;SDS011;61524;50.938;11.396;2022-11-03T16:00:03;5.28;;;1.88;;
73296;SDS011;61524;50.938;11.396;2022-11-03T16:02:30;5.00;;;2.13;;
73296;SDS011;61524;50.938;11.396;2022-11-03T16:04:56;4.93;;;2.15;;
73296;SDS011;61524;50.938;11.396;2022-11-03T16:07:21;4.50;;;2.00;;
73296;SDS011;61524;50.938;11.396;2022-11-03T16:09:47;5.30;;;2.03;;
73296;SDS011;61524;50.938;11.396;2022-11-03T16:12:13;5.40;;;2.50;;
73296;SDS011;61524;50.938;11.396;2022-11-03T16:14:38;5.80;;;2.00;;
73296;SDS011;61524;50.938;11.396;2022-11-03T16:17:04;5.28;;;2.75;;
73296;SDS011;61524;50.938;11.396;2022-11-03T16:19:30;5.00;;;1.80;;
73296;SDS011;61524;50.938;11.396;2022-11-03T16:21:55;5.90;;;1.90;;
73296;SDS011;61524;50.938;11.396;2022-11-03T16:24:21;6.88;;;2.10;;
73296;SDS011;61524;50.938;11.396;2022-11-03T16:26:46;5.50;;;1.77;;
73296;SDS011;61524;50.938;11.396;2022-11-03T16:29:12;5.82;;;2.33;;
73296;SDS011;61524;50.938;11.396;2022-11-03T16:31:37;5.15;;;2.28;;
73296;SDS011;61524;50.938;11.396;2022-11-03T16:34:03;5.05;;;2.50;;
73296;SDS011;61524;50.938;11.396;2022-11-03T16:36:28;6.63;;;2.28;;
73296;SDS011;61524;50.938;11.396;2022-11-03T16:38:54;6.60;;;2.20;;
73296;SDS011;61524;50.938;11.396;2022-11-03T16:41:20;4.82;;;2.72;;
73296;SDS011;61524;50.938;11.396;2022-11-03T16:43:45;4.35;;;2.42;;
73296;SDS011;61524;50.938;11.396;2022-11-03T16:46:12;7.70;;;2.85;;
73296;SDS011;61524;50.938;11.396;2022-11-03T16:48:38;6.47;;;2.38;;
73296;SDS011;61524;50.938;11.396;2022-11-03T16:51:03;7.03;;;2.63;;
73296;SDS011;61524;50.938;11.396;2022-11-03T16:53:29;8.88;;;2.40;;
73296;SDS011;61524;50.938;11.396;2022-11-03T16:55:54;8.68;;;2.42;;
73296;SDS011;61524;50.938;11.396;2022-11-03T16:58:20;6.22;;;2.67;;
73296;SDS011;61524;50.938;11.396;2022-11-03T17:00:45;5.75;;;2.75;;
73296;SDS011;61524;50.938;11.396;2022-11-03T17:03:11;8.27;;;2.60;;
73296;SDS011;61524;50.938;11.396;2022-11-03T17:05:37;6.15;;;2.70;;
73296;SDS011;61524;50.938;11.396;2022-11-03T17:08:02;8.15;;;2.92;;
73296;SDS011;61524;50.938;11.396;2022-11-03T17:10:27;6.75;;;2.45;;
73296;SDS011;61524;50.938;11.396;2022-11-03T17:12:55;7.07;;;3.00;;
73296;SDS011;61524;50.938;11.396;2022-11-03T17:15:22;6.05;;;3.20;;
73296;SDS011;61524;50.938;11.396;2022-11-03T17:17:47;8.25;;;2.63;;
73296;SDS011;61524;50.938;11.396;2022-11-03T17:20:13;4.95;;;2.50;;
73296;SDS011;61524;50.938;11.396;2022-11-03T17:22:39;5.68;;;2.47;;
73296;SDS011;61524;50.938;11.396;2022-11-03T17:25:04;7.00;;;2.55;;
73296;SDS011;61524;50.938;11.396;2022-11-03T17:30:05;6.90;;;2.50;;
73296;SDS011;61524;50.938;11.396;2022-11-03T17:32:35;6.55;;;2.70;;
73296;SDS011;61524;50.938;11.396;2022-11-03T17:35:04;6.68;;;3.42;;
73296;SDS011;61524;50.938;11.396;2022-11-03T17:37:38;5.85;;;2.85;;
73296;SDS011;61524;50.938;11.396;2022-11-03T17:40:04;6.18;;;2.67;;
73296;SDS011;61524;50.938;11.396;2022-11-03T17:42:33;6.55;;;3.60;;
73296;SDS011;61524;50.938;11.396;2022-11-03T17:44:59;8.25;;;3.40;;
73296;SDS011;61524;50.938;11.396;2022-11-03T17:47:25;7.07;;;3.17;;
73296;SDS011;61524;50.938;11.396;2022-11-03T17:49:50;8.52;;;3.20;;
73296;SDS011;61524;50.938;11.396;2022-11-03T17:52:20;6.95;;;3.10;;
73296;SDS011;61524;50.938;11.396;2022-11-03T17:54:48;7.60;;;4.05;;
73296;SDS011;61524;50.938;11.396;2022-11-03T17:57:15;7.40;;;2.88;;
73296;SDS011;61524;50.938;11.396;2022-11-03T17:59:43;6.70;;;3.15;;
73296;SDS011;61524;50.938;11.396;2022-11-03T18:02:14;7.90;;;3.63;;
73296;SDS011;61524;50.938;11.396;2022-11-03T18:04:44;6.07;;;3.50;;
73296;SDS011;61524;50.938;11.396;2022-11-03T18:07:28;7.63;;;3.20;;
73296;SDS011;61524;50.938;11.396;2022-11-03T18:09:53;10.30;;;4.03;;
73296;SDS011;61524;50.938;11.396;2022-11-03T18:12:23;10.02;;;3.20;;
73296;SDS011;61524;50.938;11.396;2022-11-03T18:15:13;6.05;;;3.20;;
73296;SDS011;61524;50.938;11.396;2022-11-03T18:17:42;8.32;;;4.07;;
73296;SDS011;61524;50.938;11.396;2022-11-03T18:20:19;6.95;;;3.40;;
73296;SDS011;61524;50.938;11.396;2022-11-03T18:22:48;6.13;;;3.13;;
73296;SDS011;61524;50.938;11.396;2022-11-03T18:25:14;8.30;;;3.30;;
73296;SDS011;61524;50.938;11.396;2022-11-03T18:27:41;6.43;;;2.72;;